TimeCDT,TemperatureF,Dew PointF,Humidity,Sea Level PressureIn,VisibilityMPH,Wind Direction,Wind SpeedMPH,Gust SpeedMPH,PrecipitationIn,Events,Conditions,WindDirDegrees,DateUTC
12:53 AM,39.0,30.0,70,29.88,10.0,WNW,9.2,-,N/A,,Overcast,290,2013-04-19 05:53:00
1:40 AM,39.2,28.4,65,29.89,10.0,WNW,17.3,25.3,N/A,,Overcast,300,2013-04-19 06:40:00
1:53 AM,37.9,28.0,68,29.89,10.0,WNW,12.7,20.7,N/A,,Overcast,300,2013-04-19 06:53:00
2:08 AM,37.4,28.4,70,29.89,10.0,WNW,10.4,-,N/A,,Overcast,290,2013-04-19 07:08:00
2:49 AM,37.4,26.6,65,29.88,10.0,WNW,12.7,21.9,N/A,,Overcast,300,2013-04-19 07:49:00
2:53 AM,37.9,27.0,65,29.89,10.0,WNW,13.8,21.9,N/A,,Overcast,290,2013-04-19 07:53:00
3:16 AM,37.4,26.6,65,29.88,10.0,West,17.3,21.9,N/A,,Overcast,280,2013-04-19 08:16:00
3:48 AM,37.4,26.6,65,29.89,10.0,West,15.0,23.0,N/A,,Overcast,280,2013-04-19 08:48:00
3:53 AM,37.0,26.1,65,29.91,10.0,West,9.2,23.0,N/A,,Overcast,280,2013-04-19 08:53:00
4:53 AM,37.0,26.1,65,29.91,10.0,West,13.8,19.6,N/A,,Overcast,280,2013-04-19 09:53:00
5:53 AM,36.0,25.0,64,29.93,10.0,West,10.4,-,N/A,,Overcast,280,2013-04-19 10:53:00
6:53 AM,36.0,24.1,62,29.95,10.0,West,13.8,20.7,N/A,,Overcast,280,2013-04-19 11:53:00
7:53 AM,37.0,23.0,57,29.98,10.0,West,16.1,24.2,N/A,,Overcast,280,2013-04-19 12:53:00
8:53 AM,36.0,25.0,64,29.99,10.0,West,11.5,20.7,N/A,,Overcast,270,2013-04-19 13:53:00
9:53 AM,37.0,25.0,62,30.01,10.0,West,17.3,23.0,N/A,,Overcast,280,2013-04-19 14:53:00
10:53 AM,39.9,26.1,58,30.02,10.0,WNW,17.3,27.6,N/A,,Overcast,290,2013-04-19 15:53:00
11:53 AM,44.1,25.0,47,30.01,10.0,West,17.3,29.9,N/A,,Scattered Clouds,270,2013-04-19 16:53:00
12:53 PM,48.0,25.0,41,30.00,10.0,WNW,17.3,28.8,N/A,,Clear,290,2013-04-19 17:53:00
1:53 PM,50.0,24.1,36,30.00,10.0,WNW,16.1,27.6,N/A,,Clear,300,2013-04-19 18:53:00
2:53 PM,51.1,23.0,33,30.00,10.0,WNW,13.8,24.2,N/A,,Clear,290,2013-04-19 19:53:00
3:53 PM,52.0,23.0,32,30.00,10.0,WNW,19.6,25.3,N/A,,Clear,290,2013-04-19 20:53:00
4:53 PM,53.1,21.0,29,30.00,10.0,West,17.3,25.3,N/A,,Clear,270,2013-04-19 21:53:00
5:53 PM,52.0,21.0,30,30.03,10.0,NW,18.4,31.1,N/A,,Clear,310,2013-04-19 22:53:00
6:53 PM,50.0,23.0,35,30.04,10.0,WNW,10.4,23.0,N/A,,Partly Cloudy,290,2013-04-19 23:53:00
7:53 PM,48.0,23.0,37,30.06,10.0,WNW,12.7,-,N/A,,Clear,290,2013-04-20 00:53:00
8:53 PM,42.1,27.0,55,30.09,10.0,West,3.5,-,N/A,,Clear,260,2013-04-20 01:53:00
9:53 PM,39.9,28.0,63,30.11,10.0,WSW,3.5,-,N/A,,Clear,240,2013-04-20 02:53:00
10:53 PM,39.9,28.0,63,30.12,10.0,Calm,Calm,-,N/A,,Scattered Clouds,0,2013-04-20 03:53:00
11:53 PM,39.0,28.0,65,30.12,10.0,SW,3.5,-,N/A,,Clear,230,2013-04-20 04:53:00